createdAt,value
2023-01-31T00:38:06.075Z,492.00
2023-01-31T00:39:05.640Z,491.00
2023-01-31T00:40:05.655Z,494.00
2023-01-31T00:41:05.714Z,492.00
2023-01-31T00:42:05.898Z,492.00
2023-01-31T00:43:06.056Z,493.00
2023-01-31T01:56:02.103Z,485.00
2023-01-31T01:57:02.182Z,485.00
2023-01-31T01:58:02.241Z,486.00
2023-01-31T01:59:02.264Z,485.00
2023-01-31T02:00:02.333Z,484.00
2023-01-31T02:01:02.456Z,485.00
2023-01-31T02:02:02.414Z,487.00
2023-01-31T02:03:02.487Z,486.00
2023-01-31T02:04:02.707Z,487.00
2023-01-31T02:05:02.547Z,489.00
2023-01-31T02:06:02.598Z,486.00
2023-01-31T02:07:02.714Z,486.00
2023-01-31T02:08:02.712Z,486.00
2023-01-31T02:09:02.851Z,486.00
2023-01-31T02:10:02.869Z,486.00
2023-01-31T02:11:02.928Z,486.00
2023-01-31T02:12:02.933Z,484.00
2023-01-31T02:13:03.001Z,485.00
2023-01-31T02:14:03.011Z,484.00
2023-01-31T02:15:03.089Z,483.00
2023-01-31T02:16:03.158Z,482.00
2023-01-31T02:17:03.217Z,482.00
2023-01-31T02:18:03.264Z,484.00
2023-01-31T02:19:03.284Z,486.00
2023-01-31T02:20:03.384Z,486.00
2023-01-31T02:21:03.411Z,487.00
2023-01-31T02:22:03.479Z,487.00
2023-01-31T02:23:03.524Z,487.00
2023-01-31T02:24:03.565Z,486.00
2023-01-31T02:25:03.624Z,485.00
2023-01-31T02:26:03.698Z,485.00
2023-01-31T02:27:03.764Z,485.00
2023-01-31T02:28:03.760Z,484.00
2023-01-31T06:34:34.558Z,562.00
2023-01-31T06:45:34.968Z,553.00
2023-01-31T06:50:16.136Z,526.00
2023-01-31T06:55:43.116Z,521.00
2023-01-31T06:56:42.923Z,509.00
2023-01-31T06:57:43.145Z,511.00
2023-01-31T06:58:43.514Z,496.00
2023-01-31T06:59:42.941Z,504.00
2023-01-31T07:00:43.872Z,507.00
2023-01-31T07:01:43.062Z,509.00
2023-01-31T07:02:43.060Z,513.00
2023-01-31T07:03:43.037Z,505.00
2023-01-31T07:04:43.294Z,510.00
2023-01-31T07:05:43.145Z,545.00
2023-01-31T07:06:43.168Z,551.00
2023-01-31T07:10:45.678Z,592.00
2023-01-31T07:11:45.687Z,595.00
2023-01-31T07:12:46.158Z,659.00
2023-01-31T07:13:46.599Z,638.00
2023-01-31T07:14:45.672Z,660.00
2023-01-31T07:15:45.666Z,649.00
2023-01-31T07:16:45.710Z,642.00
2023-01-31T07:17:45.696Z,667.00
2023-01-31T07:18:45.707Z,669.00
2023-01-31T07:19:45.704Z,675.00
2023-01-31T07:20:45.891Z,640.00
2023-01-31T07:21:45.948Z,644.00
2023-01-31T07:22:48.458Z,671.00
2023-01-31T07:23:46.890Z,666.00
2023-01-31T07:24:46.324Z,660.00
2023-01-31T07:30:23.936Z,703.00
2023-01-31T07:58:28.642Z,649.00
2023-01-31T07:59:29.818Z,681.00
2023-01-31T08:00:28.182Z,737.00
2023-01-31T08:03:21.233Z,708.00
2023-01-31T08:17:24.838Z,772.00
2023-01-31T08:32:44.241Z,1196.00
2023-01-31T08:35:06.055Z,1195.00
2023-01-31T08:39:02.759Z,747.00
2023-01-31T09:11:19.774Z,718.00
2023-01-31T09:12:19.289Z,727.00
2023-01-31T09:13:18.725Z,733.00
2023-01-31T09:14:18.782Z,737.00
2023-01-31T09:15:19.907Z,730.00
2023-01-31T09:16:18.964Z,733.00
2023-01-31T09:17:18.991Z,743.00
2023-01-31T09:18:18.925Z,748.00
2023-01-31T09:19:18.877Z,755.00
2023-01-31T09:20:19.114Z,754.00
2023-01-31T09:33:30.936Z,841.00
2023-01-31T09:34:30.758Z,939.00
2023-01-31T09:35:30.656Z,969.00
2023-01-31T09:36:30.798Z,823.00
2023-01-31T09:37:30.747Z,776.00
2023-01-31T09:38:33.025Z,669.00
2023-01-31T09:40:49.411Z,572.00
2023-01-31T09:41:50.632Z,550.00
2023-01-31T09:43:03.295Z,554.00
2023-01-31T09:43:50.278Z,515.00
2023-01-31T09:44:49.261Z,518.00
2023-01-31T09:45:48.928Z,524.00
2023-01-31T09:46:48.865Z,515.00
2023-01-31T09:47:49.181Z,514.00
2023-01-31T09:48:49.075Z,519.00
2023-01-31T09:49:48.889Z,660.00
2023-01-31T11:21:45.042Z,800.00
2023-01-31T13:11:06.552Z,738.00
2023-01-31T13:21:37.388Z,782.00
2023-01-31T13:22:34.851Z,797.00
2023-01-31T13:23:35.613Z,801.00
2023-01-31T13:24:34.766Z,799.00
2023-01-31T13:25:34.700Z,746.00
2023-01-31T13:26:34.745Z,746.00
2023-01-31T13:27:34.695Z,734.00
2023-01-31T13:28:34.691Z,719.00
2023-01-31T13:29:34.686Z,563.00
2023-01-31T13:30:34.794Z,572.00
2023-01-31T13:31:34.865Z,594.00
2023-01-31T14:29:17.645Z,644.00
2023-01-31T14:30:17.502Z,642.00
2023-01-31T14:31:18.414Z,638.00
2023-01-31T14:34:45.981Z,647.00
2023-01-31T14:35:47.648Z,643.00
2023-01-31T14:36:45.777Z,645.00
2023-01-31T14:37:45.952Z,645.00
2023-01-31T14:38:46.891Z,643.00
2023-01-31T14:39:46.069Z,647.00
2023-01-31T14:40:46.059Z,651.00
2023-01-31T14:41:45.995Z,663.00
2023-01-31T14:42:46.053Z,662.00
2023-01-31T14:43:46.144Z,665.00
2023-01-31T14:44:46.275Z,654.00
2023-01-31T14:47:07.824Z,659.00
2023-01-31T14:48:05.204Z,647.00
2023-01-31T14:50:24.405Z,638.00
2023-01-31T14:51:25.168Z,628.00
2023-01-31T14:52:24.041Z,631.00
2023-01-31T14:53:23.991Z,636.00
2023-01-31T14:54:23.924Z,643.00
2023-01-31T14:55:24.146Z,642.00
2023-01-31T14:56:23.905Z,643.00
2023-01-31T14:57:23.917Z,645.00
2023-01-31T14:59:43.243Z,634.00
2023-01-31T15:00:43.302Z,635.00
2023-01-31T15:01:42.837Z,634.00
2023-01-31T15:02:43.948Z,635.00
2023-01-31T15:03:42.747Z,638.00
2023-01-31T15:04:42.729Z,640.00
2023-01-31T15:05:42.836Z,641.00
2023-01-31T15:06:42.684Z,642.00
2023-01-31T15:13:16.306Z,630.00
2023-01-31T15:14:33.038Z,632.00
2023-01-31T15:15:17.263Z,629.00
2023-01-31T15:46:18.605Z,684.00
2023-01-31T15:47:18.563Z,681.00
2023-01-31T15:57:58.809Z,692.00
2023-01-31T15:58:59.136Z,685.00
2023-01-31T15:59:58.941Z,678.00
2023-01-31T16:00:59.034Z,675.00
2023-01-31T16:15:04.373Z,719.00
2023-01-31T16:16:04.375Z,711.00
2023-01-31T16:17:04.606Z,707.00
2023-01-31T16:18:04.176Z,708.00
2023-01-31T16:19:04.060Z,710.00
2023-01-31T16:22:06.898Z,733.00
2023-01-31T16:23:06.492Z,734.00
2023-01-31T16:24:06.137Z,732.00
2023-01-31T16:26:25.219Z,727.00
2023-01-31T16:27:25.170Z,722.00
2023-01-31T16:28:25.186Z,719.00
2023-01-31T16:29:24.939Z,719.00
2023-01-31T16:30:25.210Z,719.00
2023-01-31T16:31:24.991Z,720.00
2023-01-31T16:32:24.843Z,721.00
2023-01-31T16:33:24.905Z,724.00
2023-01-31T16:34:25.212Z,727.00
2023-01-31T16:35:24.891Z,727.00
2023-01-31T16:36:24.873Z,728.00
2023-01-31T16:37:24.847Z,728.00
2023-01-31T16:49:00.113Z,731.00
2023-01-31T16:49:59.963Z,731.00
2023-01-31T16:50:59.884Z,733.00
2023-01-31T16:51:59.836Z,727.00
2023-01-31T16:52:59.873Z,720.00
2023-01-31T16:53:59.849Z,718.00
2023-01-31T16:54:59.888Z,713.00
2023-01-31T16:55:59.958Z,709.00
2023-01-31T16:56:59.936Z,711.00
2023-01-31T16:57:59.948Z,713.00
2023-01-31T16:58:59.949Z,713.00
2023-01-31T17:00:00.037Z,1032.00
2023-01-31T17:01:00.112Z,764.00
2023-01-31T17:01:59.982Z,756.00
2023-01-31T17:03:00.036Z,718.00
2023-01-31T17:04:00.101Z,712.00
2023-01-31T17:09:22.220Z,705.00
2023-01-31T17:10:22.562Z,711.00
2023-01-31T17:12:22.269Z,711.00
2023-01-31T17:20:22.398Z,692.00
2023-01-31T17:49:55.812Z,701.00
2023-01-31T17:50:55.732Z,703.00
2023-01-31T18:09:42.917Z,715.00
2023-01-31T18:10:43.130Z,717.00
2023-01-31T18:11:42.673Z,717.00
2023-01-31T18:12:42.539Z,716.00
2023-01-31T18:18:01.504Z,715.00
2023-01-31T18:44:58.518Z,739.00
2023-01-31T18:55:13.686Z,763.00
2023-01-31T18:56:13.362Z,773.00
2023-01-31T19:43:47.516Z,741.00
2023-01-31T19:44:47.548Z,737.00
2023-01-31T19:45:47.527Z,742.00
2023-01-31T19:46:47.445Z,742.00
2023-01-31T19:47:59.069Z,742.00
2023-01-31T19:50:06.242Z,743.00
2023-01-31T19:51:07.205Z,732.00
2023-01-31T19:52:06.836Z,729.00
2023-01-31T19:54:27.154Z,733.00
2023-01-31T19:56:43.689Z,741.00
2023-01-31T19:57:43.989Z,731.00
2023-01-31T19:58:43.750Z,727.00
2023-01-31T19:59:43.664Z,730.00
2023-01-31T20:00:43.705Z,732.00
2023-01-31T20:01:43.691Z,732.00
2023-01-31T20:02:43.719Z,732.00
2023-01-31T20:03:43.792Z,733.00
2023-01-31T20:04:43.823Z,740.00
2023-01-31T20:05:43.721Z,741.00
2023-01-31T20:06:44.755Z,745.00
2023-01-31T20:07:43.736Z,746.00
2023-01-31T20:08:43.835Z,747.00
2023-01-31T20:09:44.749Z,750.00
2023-01-31T20:10:43.800Z,748.00
2023-01-31T20:13:03.067Z,746.00
2023-01-31T20:14:03.552Z,741.00
2023-01-31T20:15:04.354Z,740.00
2023-01-31T20:16:03.636Z,744.00
2023-01-31T20:17:02.683Z,747.00
2023-01-31T20:18:03.703Z,748.00
2023-01-31T20:19:03.745Z,749.00
2023-01-31T20:20:02.932Z,745.00
2023-01-31T20:21:03.009Z,737.00
2023-01-31T20:29:33.561Z,760.00
2023-01-31T20:31:52.690Z,755.00
2023-01-31T20:32:52.451Z,758.00
2023-01-31T20:33:52.743Z,759.00
2023-01-31T20:34:52.698Z,758.00
2023-01-31T20:35:52.485Z,761.00
2023-01-31T20:36:52.523Z,764.00
2023-01-31T20:37:52.440Z,759.00
2023-01-31T20:38:53.144Z,761.00
2023-01-31T20:39:52.478Z,765.00
2023-01-31T20:40:52.694Z,767.00
2023-01-31T20:41:52.604Z,763.00
2023-01-31T20:51:11.421Z,773.00
2023-01-31T20:58:49.565Z,785.00
2023-01-31T21:01:09.252Z,796.00
2023-01-31T21:02:08.737Z,789.00
2023-01-31T21:03:08.361Z,787.00
2023-01-31T21:04:08.421Z,789.00
2023-01-31T21:05:09.298Z,793.00
2023-01-31T21:06:08.407Z,811.00
2023-01-31T21:07:09.544Z,874.00
2023-01-31T21:08:09.412Z,872.00
2023-01-31T21:09:08.522Z,871.00
2023-01-31T21:18:27.086Z,786.00
2023-01-31T22:10:12.408Z,797.00
2023-01-31T22:11:12.331Z,793.00
2023-01-31T22:12:12.209Z,793.00
2023-01-31T22:13:12.020Z,793.00
2023-01-31T22:15:12.101Z,799.00
2023-01-31T22:16:12.200Z,801.00
2023-01-31T22:17:12.040Z,800.00
2023-01-31T22:18:12.305Z,798.00
2023-01-31T22:19:12.185Z,796.00
2023-01-31T22:20:12.252Z,794.00
2023-01-31T22:21:12.391Z,793.00
2023-01-31T22:22:12.035Z,791.00
2023-01-31T23:53:58.844Z,687.00
2023-01-31T23:58:17.412Z,696.00
2023-01-31T23:59:17.337Z,696.00
